createdAt,value
2022-12-28T00:02:25.081Z,4.60
2022-12-28T00:04:53.284Z,4.70
2022-12-28T00:07:20.966Z,4.90
2022-12-28T00:09:48.728Z,4.80
2022-12-28T00:12:16.820Z,4.50
2022-12-28T00:14:46.220Z,3.60
2022-12-28T00:17:14.057Z,4.20
2022-12-28T00:19:42.154Z,3.70
2022-12-28T00:22:10.014Z,4.20
2022-12-28T00:24:37.914Z,4.20
2022-12-28T00:27:05.931Z,3.70
2022-12-28T00:29:33.929Z,4.10
2022-12-28T00:32:14.626Z,4.10
2022-12-28T00:34:42.642Z,4.20
2022-12-28T00:37:13.136Z,5.90
2022-12-28T00:39:42.271Z,4.60
2022-12-28T00:42:11.569Z,3.60
2022-12-28T00:44:39.925Z,3.80
2022-12-28T00:47:09.350Z,3.80
2022-12-28T00:49:40.909Z,3.90
2022-12-28T00:52:15.700Z,3.70
2022-12-28T00:54:43.000Z,3.90
2022-12-28T00:57:10.861Z,3.70
2022-12-28T00:59:38.700Z,4.50
2022-12-28T01:02:05.714Z,3.30
2022-12-28T01:04:32.947Z,3.70
2022-12-28T01:07:01.261Z,3.60
2022-12-28T01:09:34.110Z,3.80
2022-12-28T01:12:01.661Z,4.50
2022-12-28T01:14:28.726Z,4.50
2022-12-28T01:16:56.496Z,3.80
2022-12-28T01:19:25.716Z,3.80
2022-12-28T01:21:52.878Z,4.30
2022-12-28T01:24:20.599Z,4.20
2022-12-28T01:26:47.656Z,4.10
2022-12-28T01:29:15.723Z,4.40
2022-12-28T01:31:45.432Z,4.40
2022-12-28T01:34:13.418Z,4.00
2022-12-28T01:36:42.835Z,3.50
2022-12-28T01:39:13.370Z,3.60
2022-12-28T01:41:42.272Z,4.10
2022-12-28T01:44:12.195Z,4.60
2022-12-28T01:47:02.595Z,4.70
2022-12-28T01:49:31.690Z,3.70
2022-12-28T01:52:08.254Z,3.60
2022-12-28T01:54:44.062Z,4.10
2022-12-28T01:57:16.668Z,6.70
2022-12-28T01:59:49.654Z,8.70
2022-12-28T02:02:17.211Z,8.60
2022-12-28T02:04:48.721Z,8.40
2022-12-28T02:07:26.374Z,6.80
2022-12-28T02:10:43.571Z,7.10
2022-12-28T02:12:41.740Z,5.50
2022-12-28T02:15:09.301Z,7.50
2022-12-28T02:17:36.959Z,7.80
2022-12-28T02:20:05.976Z,6.70
2022-12-28T02:22:52.549Z,7.10
2022-12-28T02:25:58.915Z,16.30
2022-12-28T02:28:49.666Z,13.90
2022-12-28T02:31:43.106Z,10.80
2022-12-28T02:34:23.878Z,8.70
2022-12-28T02:37:27.264Z,12.70
2022-12-28T02:40:02.136Z,18.20
2022-12-28T02:42:30.423Z,29.40
2022-12-28T02:45:30.585Z,34.90
2022-12-28T02:48:18.205Z,46.80
2022-12-28T02:51:10.637Z,40.80
2022-12-28T02:53:47.239Z,35.40
2022-12-28T02:56:42.077Z,22.60
2022-12-28T02:59:17.475Z,16.40
2022-12-28T03:01:58.232Z,9.70
2022-12-28T03:05:08.925Z,7.50
2022-12-28T03:08:08.666Z,5.20
2022-12-28T03:11:00.284Z,9.90
2022-12-28T03:13:43.168Z,10.40
2022-12-28T03:16:22.961Z,13.70
2022-12-28T03:19:20.317Z,14.00
2022-12-28T03:22:08.887Z,9.30
2022-12-28T03:24:57.854Z,13.30
2022-12-28T03:27:47.551Z,10.50
2022-12-28T03:30:38.901Z,7.80
2022-12-28T03:33:10.075Z,9.90
2022-12-28T03:35:44.785Z,7.30
2022-12-28T03:38:26.691Z,8.40
2022-12-28T03:41:10.319Z,10.20
2022-12-28T03:43:46.080Z,10.00
2022-12-28T03:46:21.906Z,9.60
2022-12-28T03:48:50.485Z,9.00
2022-12-28T03:51:22.468Z,9.60
2022-12-28T03:53:51.012Z,6.40
2022-12-28T03:56:26.645Z,6.00
2022-12-28T03:58:55.997Z,5.00
2022-12-28T04:01:27.712Z,5.10
2022-12-28T04:03:54.537Z,5.90
2022-12-28T04:06:21.508Z,5.20
2022-12-28T04:08:51.565Z,4.90
2022-12-28T04:11:21.421Z,5.50
2022-12-28T04:13:51.600Z,6.10
2022-12-28T04:16:19.117Z,6.40
2022-12-28T04:18:46.849Z,6.80
2022-12-28T04:21:14.961Z,6.40
2022-12-28T04:23:43.835Z,5.40
2022-12-28T04:26:20.259Z,7.70
2022-12-28T04:28:48.700Z,12.00
2022-12-28T04:31:39.990Z,8.20
2022-12-28T04:34:10.665Z,8.40
2022-12-28T04:36:40.266Z,8.10
2022-12-28T04:39:11.976Z,8.40
2022-12-28T04:41:39.590Z,9.40
2022-12-28T04:44:07.153Z,9.60
2022-12-28T04:46:34.048Z,8.30
2022-12-28T04:49:01.253Z,9.10
2022-12-28T04:51:29.370Z,8.80
2022-12-28T04:54:16.445Z,8.40
2022-12-28T04:56:43.417Z,8.90
2022-12-28T04:59:10.244Z,8.30
2022-12-28T05:01:37.745Z,25.70
2022-12-28T05:04:05.152Z,32.10
2022-12-28T05:09:25.883Z,27.80
2022-12-28T05:11:54.791Z,29.50
2022-12-28T05:14:22.781Z,21.50
2022-12-28T05:16:51.851Z,15.30
2022-12-28T05:19:20.979Z,18.20
2022-12-28T05:21:48.854Z,16.80
2022-12-28T05:24:17.130Z,12.90
2022-12-28T05:26:44.863Z,9.70
2022-12-28T05:29:12.757Z,8.20
2022-12-28T05:31:40.659Z,7.50
2022-12-28T05:34:08.555Z,7.80
2022-12-28T05:36:37.789Z,7.60
2022-12-28T05:39:05.915Z,7.40
2022-12-28T05:41:33.627Z,9.10
2022-12-28T05:45:15.915Z,6.60
2022-12-28T05:47:43.687Z,6.70
2022-12-28T05:50:11.987Z,8.00
2022-12-28T05:52:40.808Z,6.60
2022-12-28T05:55:11.248Z,8.90
2022-12-28T05:57:39.351Z,14.00
2022-12-28T06:00:07.604Z,10.40
2022-12-28T06:02:59.891Z,12.80
2022-12-28T06:05:28.066Z,10.20
2022-12-28T06:07:57.125Z,9.50
2022-12-28T06:10:24.764Z,12.10
2022-12-28T06:12:52.641Z,13.50
2022-12-28T06:15:21.761Z,7.20
2022-12-28T06:17:53.206Z,32.00
2022-12-28T06:20:20.740Z,39.50
2022-12-28T06:22:48.683Z,10.70
2022-12-28T06:25:16.489Z,5.50
2022-12-28T06:27:44.915Z,5.90
2022-12-28T06:30:14.262Z,4.50
2022-12-28T06:36:33.853Z,4.90
2022-12-28T06:39:04.910Z,4.80
2022-12-28T06:41:32.086Z,6.00
2022-12-28T06:44:00.078Z,6.60
2022-12-28T06:46:31.186Z,5.40
2022-12-28T06:48:58.529Z,6.90
2022-12-28T06:51:30.229Z,7.30
2022-12-28T06:53:57.791Z,5.10
2022-12-28T06:56:31.671Z,7.40
2022-12-28T06:59:03.252Z,10.20
2022-12-28T07:01:37.998Z,9.40
2022-12-28T07:04:09.582Z,7.90
2022-12-28T07:06:44.339Z,10.70
2022-12-28T07:09:16.879Z,11.30
2022-12-28T07:11:45.720Z,10.90
2022-12-28T07:14:13.882Z,10.80
2022-12-28T07:16:41.552Z,14.40
2022-12-28T07:19:09.188Z,12.50
2022-12-28T07:21:39.534Z,11.50
2022-12-28T07:24:09.397Z,9.30
2022-12-28T07:26:38.299Z,9.50
2022-12-28T07:29:07.433Z,9.20
2022-12-28T07:31:44.229Z,10.80
2022-12-28T07:34:14.884Z,7.10
2022-12-28T07:36:42.211Z,7.80
2022-12-28T07:39:10.056Z,9.60
2022-12-28T07:41:38.139Z,12.70
2022-12-28T07:44:10.498Z,9.80
2022-12-28T07:46:37.898Z,7.80
2022-12-28T07:49:05.163Z,5.80
2022-12-28T07:51:35.284Z,5.40
2022-12-28T07:54:06.717Z,5.90
2022-12-28T07:59:03.315Z,7.90
2022-12-28T08:01:32.687Z,11.00
2022-12-28T08:04:03.004Z,9.90
2022-12-28T08:06:33.647Z,9.10
2022-12-28T08:09:01.638Z,12.10
2022-12-28T08:11:32.421Z,9.80
2022-12-28T08:14:01.141Z,8.80
2022-12-28T08:16:34.263Z,7.00
2022-12-28T08:19:02.875Z,6.80
2022-12-28T08:21:35.590Z,6.90
2022-12-28T08:24:05.594Z,5.80
2022-12-28T08:26:40.292Z,6.60
2022-12-28T08:29:13.279Z,6.20
2022-12-28T08:31:43.200Z,6.90
2022-12-28T08:34:16.064Z,6.90
2022-12-28T08:36:44.099Z,5.70
2022-12-28T08:39:12.190Z,6.10
2022-12-28T08:41:40.156Z,6.30
2022-12-28T08:44:08.211Z,5.80
2022-12-28T08:46:39.805Z,6.40
2022-12-28T08:49:09.256Z,6.00
2022-12-28T08:51:42.180Z,6.50
2022-12-28T08:54:13.439Z,7.70
2022-12-28T08:56:44.366Z,6.40
2022-12-28T08:59:15.931Z,7.60
2022-12-28T09:01:45.073Z,7.10
2022-12-28T09:04:22.082Z,5.50
2022-12-28T09:09:21.131Z,6.20
2022-12-28T09:11:49.776Z,6.40
2022-12-28T09:14:23.647Z,5.10
2022-12-28T09:16:54.256Z,4.30
2022-12-28T09:19:22.617Z,5.40
2022-12-28T09:21:52.885Z,4.50
2022-12-28T09:24:21.990Z,5.40
2022-12-28T09:26:52.382Z,4.60
2022-12-28T09:29:20.447Z,6.10
2022-12-28T09:31:48.957Z,5.80
2022-12-28T09:34:35.724Z,4.10
2022-12-28T09:37:04.730Z,5.30
2022-12-28T09:39:32.676Z,5.30
2022-12-28T09:42:12.874Z,4.80
2022-12-28T09:44:49.481Z,4.50
2022-12-28T09:47:30.865Z,4.70
2022-12-28T09:50:16.718Z,4.70
2022-12-28T09:52:59.459Z,6.40
2022-12-28T09:55:28.428Z,4.90
2022-12-28T09:57:59.970Z,5.30
2022-12-28T10:00:41.149Z,6.20
2022-12-28T10:03:18.338Z,6.00
2022-12-28T10:05:47.176Z,4.40
2022-12-28T10:08:19.019Z,4.60
2022-12-28T10:10:50.338Z,3.80
2022-12-28T10:13:53.143Z,4.20
2022-12-28T10:16:21.119Z,4.20
2022-12-28T10:18:49.593Z,5.40
2022-12-28T10:21:21.658Z,3.70
2022-12-28T10:26:44.160Z,3.90
2022-12-28T10:29:22.854Z,3.40
2022-12-28T10:31:58.458Z,4.10
2022-12-28T10:34:26.203Z,4.70
2022-12-28T10:36:55.136Z,3.90
2022-12-28T10:39:28.756Z,4.20
2022-12-28T10:41:59.276Z,4.00
2022-12-28T10:44:41.726Z,3.70
2022-12-28T10:47:25.474Z,3.30
2022-12-28T10:50:35.426Z,3.40
2022-12-28T10:52:41.981Z,3.20
2022-12-28T10:55:27.578Z,4.00
2022-12-28T11:00:44.531Z,4.20
2022-12-28T11:03:24.501Z,3.90
2022-12-28T11:06:27.519Z,4.10
2022-12-28T11:09:16.365Z,3.50
2022-12-28T11:11:46.880Z,4.20
2022-12-28T11:14:52.009Z,3.90
2022-12-28T11:17:23.523Z,3.80
2022-12-28T11:19:55.726Z,3.10
2022-12-28T11:22:28.880Z,3.30
2022-12-28T11:24:59.784Z,3.50
2022-12-28T11:27:28.187Z,3.50
2022-12-28T11:29:57.305Z,3.80
2022-12-28T11:32:37.832Z,3.90
2022-12-28T11:35:06.061Z,3.50
2022-12-28T11:37:33.703Z,4.30
2022-12-28T11:40:03.807Z,3.50
2022-12-28T11:42:40.762Z,3.90
2022-12-28T11:45:12.653Z,3.60
2022-12-28T11:47:45.297Z,3.60
2022-12-28T11:50:36.287Z,4.70
2022-12-28T11:53:21.742Z,3.60
2022-12-28T11:55:59.509Z,5.70
2022-12-28T11:58:31.394Z,3.10
2022-12-28T12:01:02.531Z,3.50
2022-12-28T12:08:16.775Z,5.00
2022-12-28T12:10:47.154Z,3.60
2022-12-28T12:13:28.915Z,3.30
2022-12-28T12:16:06.690Z,4.30
2022-12-28T12:18:45.629Z,3.20
2022-12-28T12:26:33.340Z,4.50
2022-12-28T12:29:41.973Z,3.30
2022-12-28T12:32:24.507Z,3.90
2022-12-28T12:35:03.682Z,3.70
2022-12-28T12:37:36.062Z,3.80
2022-12-28T12:40:09.533Z,4.50
2022-12-28T12:43:10.840Z,3.80
2022-12-28T12:46:15.268Z,4.10
2022-12-28T12:49:06.747Z,3.60
2022-12-28T12:52:14.561Z,4.30
2022-12-28T12:54:56.312Z,3.90
2022-12-28T12:57:36.487Z,4.00
2022-12-28T13:00:20.378Z,4.40
2022-12-28T13:02:56.999Z,4.40
2022-12-28T13:05:28.442Z,5.80
2022-12-28T13:07:58.993Z,6.30
2022-12-28T13:10:44.036Z,4.20
2022-12-28T13:13:31.580Z,4.10
2022-12-28T13:16:08.713Z,6.40
2022-12-28T13:18:46.005Z,4.50
2022-12-28T13:21:20.168Z,5.60
2022-12-28T13:23:51.427Z,4.40
2022-12-28T13:26:27.713Z,4.70
2022-12-28T13:29:08.413Z,5.70
2022-12-28T13:31:41.040Z,4.80
2022-12-28T13:34:33.310Z,3.90
2022-12-28T13:37:14.058Z,4.60
2022-12-28T13:39:42.723Z,4.50
2022-12-28T13:42:20.089Z,4.20
2022-12-28T13:44:54.598Z,5.00
2022-12-28T13:47:28.029Z,6.30
2022-12-28T13:49:59.765Z,4.80
2022-12-28T13:52:34.143Z,4.80
2022-12-28T13:55:10.303Z,4.80
2022-12-28T13:57:52.707Z,5.10
2022-12-28T14:00:26.685Z,4.80
2022-12-28T14:03:18.997Z,10.30
2022-12-28T14:05:51.434Z,4.70
2022-12-28T14:08:19.530Z,6.10
2022-12-28T14:10:50.235Z,11.70
2022-12-28T14:13:20.075Z,12.80
2022-12-28T14:16:21.822Z,11.60
2022-12-28T14:19:14.605Z,9.30
2022-12-28T14:21:45.315Z,16.90
2022-12-28T14:24:16.080Z,26.20
2022-12-28T14:26:53.130Z,22.60
2022-12-28T14:29:28.644Z,18.30
2022-12-28T14:31:58.660Z,18.00
2022-12-28T14:34:35.590Z,22.00
2022-12-28T14:37:04.315Z,26.70
2022-12-28T14:39:35.069Z,31.20
2022-12-28T14:42:05.151Z,30.00
2022-12-28T14:44:39.041Z,23.30
2022-12-28T14:47:45.293Z,11.90
2022-12-28T14:50:20.710Z,11.70
2022-12-28T14:52:50.289Z,13.30
2022-12-28T14:55:32.284Z,10.90
2022-12-28T14:58:13.084Z,12.90
2022-12-28T15:00:56.015Z,9.40
2022-12-28T15:03:24.833Z,9.70
2022-12-28T15:05:54.187Z,23.00
2022-12-28T15:08:26.826Z,23.40
2022-12-28T15:13:38.041Z,28.90
2022-12-28T15:16:06.129Z,35.60
2022-12-28T15:18:35.687Z,38.00
2022-12-28T15:21:05.395Z,35.30
2022-12-28T15:23:34.066Z,22.00
2022-12-28T15:26:09.514Z,15.90
2022-12-28T15:28:38.725Z,17.10
2022-12-28T15:31:13.732Z,14.50
2022-12-28T15:33:42.128Z,10.50
2022-12-28T15:36:17.245Z,10.00
2022-12-28T15:38:47.895Z,10.40
2022-12-28T15:41:39.668Z,12.00
2022-12-28T15:44:07.624Z,10.80
2022-12-28T15:46:38.843Z,13.90
2022-12-28T15:49:07.970Z,10.50
2022-12-28T15:51:36.102Z,8.10
2022-12-28T15:54:04.081Z,9.10
2022-12-28T15:56:34.859Z,9.60
2022-12-28T15:59:05.625Z,9.30
2022-12-28T16:01:38.171Z,10.20
2022-12-28T16:04:06.484Z,12.10
2022-12-28T16:06:40.099Z,11.60
2022-12-28T16:12:33.377Z,22.60
2022-12-28T16:15:01.372Z,28.90
2022-12-28T16:17:44.112Z,19.00
2022-12-28T16:20:18.685Z,29.10
2022-12-28T16:22:48.340Z,22.30
2022-12-28T16:25:16.973Z,19.30
2022-12-28T16:27:45.465Z,21.40
2022-12-28T16:30:13.564Z,18.70
2022-12-28T16:32:41.414Z,23.00
2022-12-28T16:35:10.081Z,22.60
2022-12-28T16:37:38.068Z,36.70
2022-12-28T16:40:09.147Z,32.80
2022-12-28T16:42:37.140Z,29.60
2022-12-28T16:45:07.262Z,26.90
2022-12-28T16:47:39.411Z,18.00
2022-12-28T16:50:10.045Z,15.60
2022-12-28T16:52:39.280Z,13.60
2022-12-28T16:55:07.832Z,17.90
2022-12-28T16:57:35.736Z,19.40
2022-12-28T17:00:04.885Z,18.60
2022-12-28T17:02:34.397Z,18.60
2022-12-28T17:05:02.067Z,20.50
2022-12-28T17:07:29.403Z,18.10
2022-12-28T17:09:57.134Z,20.00
2022-12-28T17:12:26.418Z,23.40
2022-12-28T17:14:55.465Z,27.30
2022-12-28T17:17:23.236Z,24.70
2022-12-28T17:19:52.974Z,27.40
2022-12-28T17:22:20.494Z,23.90
2022-12-28T17:24:48.239Z,24.70
2022-12-28T17:27:19.238Z,23.50
2022-12-28T17:29:47.179Z,26.50
2022-12-28T17:32:15.774Z,29.10
2022-12-28T17:34:44.132Z,29.20
2022-12-28T17:37:11.999Z,37.00
2022-12-28T17:39:42.515Z,43.80
2022-12-28T17:42:10.343Z,57.50
2022-12-28T17:44:38.433Z,37.10
2022-12-28T17:47:06.355Z,26.80
2022-12-28T17:49:33.671Z,22.30
2022-12-28T17:52:01.608Z,19.10
2022-12-28T17:54:29.564Z,21.60
2022-12-28T17:56:57.726Z,23.20
2022-12-28T17:59:26.760Z,18.00
2022-12-28T18:01:55.034Z,18.00
2022-12-28T18:04:22.892Z,22.80
2022-12-28T18:06:50.430Z,14.20
2022-12-28T18:09:25.558Z,16.10
2022-12-28T18:11:56.050Z,16.40
2022-12-28T18:14:24.408Z,15.50
2022-12-28T18:16:52.517Z,12.80
2022-12-28T18:19:20.822Z,14.00
2022-12-28T18:21:49.497Z,12.70
2022-12-28T18:24:20.516Z,13.90
2022-12-28T18:26:48.495Z,14.60
2022-12-28T18:29:16.219Z,15.80
2022-12-28T18:31:44.036Z,18.10
2022-12-28T18:34:12.340Z,19.20
2022-12-28T18:36:40.705Z,22.40
2022-12-28T18:39:08.346Z,26.50
2022-12-28T18:41:36.544Z,24.40
2022-12-28T18:44:06.308Z,23.20
2022-12-28T18:46:34.569Z,20.50
2022-12-28T18:49:02.851Z,21.00
2022-12-28T19:42:20.494Z,11.70
2022-12-28T19:44:48.909Z,15.70
2022-12-28T19:47:16.979Z,12.40
2022-12-28T19:49:45.035Z,12.30
2022-12-28T19:52:12.849Z,12.30
2022-12-28T19:54:43.101Z,13.70
2022-12-28T19:57:11.605Z,11.40
2022-12-28T19:59:39.496Z,10.60
2022-12-28T20:25:33.216Z,11.60
2022-12-28T20:28:00.939Z,11.00
2022-12-28T20:30:32.037Z,12.10
2022-12-28T20:32:59.520Z,11.30
2022-12-28T20:35:29.669Z,12.40
2022-12-28T20:37:57.899Z,12.10
2022-12-28T20:40:25.326Z,17.90
2022-12-28T20:43:12.734Z,16.70
2022-12-28T20:45:40.137Z,14.10
2022-12-28T20:48:08.086Z,14.70
2022-12-28T20:50:35.602Z,13.80
2022-12-28T20:53:03.176Z,11.80
2022-12-28T20:55:30.663Z,10.90
2022-12-28T21:04:48.130Z,11.10
2022-12-28T21:07:16.237Z,12.60
2022-12-28T21:09:45.122Z,12.70
2022-12-28T21:12:13.222Z,11.40
2022-12-28T21:14:43.228Z,11.40
2022-12-28T21:17:10.868Z,11.30
2022-12-28T21:19:39.493Z,11.80
2022-12-28T21:22:10.694Z,9.80
2022-12-28T21:24:38.334Z,10.90
2022-12-28T21:27:05.741Z,9.40
2022-12-28T21:29:34.191Z,9.70
2022-12-28T21:32:02.022Z,10.60
2022-12-28T21:34:31.105Z,8.70
2022-12-28T21:37:18.655Z,9.70
2022-12-28T21:39:46.443Z,11.00
2022-12-28T21:42:14.593Z,12.00
2022-12-28T21:44:41.656Z,10.80
2022-12-28T21:47:09.044Z,11.20
2022-12-28T21:59:07.491Z,19.70
2022-12-28T22:01:54.833Z,22.10
2022-12-28T22:04:41.665Z,21.20
2022-12-28T22:07:10.835Z,23.00
2022-12-28T22:09:57.718Z,23.90
2022-12-28T22:12:38.725Z,23.90
2022-12-28T22:15:26.873Z,25.00
2022-12-28T22:17:58.339Z,23.50
2022-12-28T22:20:26.875Z,23.80
2022-12-28T22:22:57.376Z,18.80
2022-12-28T22:25:26.496Z,15.20
2022-12-28T22:27:54.284Z,18.90
2022-12-28T22:30:22.124Z,17.30
2022-12-28T22:32:49.842Z,17.20
2022-12-28T22:35:17.448Z,22.50
2022-12-28T22:37:45.804Z,21.10
2022-12-28T22:40:13.626Z,19.60
2022-12-28T22:43:58.159Z,20.30
2022-12-28T22:46:26.513Z,23.20
2022-12-28T23:05:17.619Z,23.70
2022-12-28T23:07:45.093Z,24.20
2022-12-28T23:10:13.334Z,22.80
2022-12-28T23:12:41.056Z,26.00
2022-12-28T23:15:18.569Z,26.00
2022-12-28T23:17:48.437Z,25.30
2022-12-28T23:20:35.146Z,24.00
2022-12-28T23:23:21.925Z,24.40
2022-12-28T23:26:07.819Z,26.00
2022-12-28T23:28:35.437Z,24.50
2022-12-28T23:31:04.253Z,25.30
2022-12-28T23:33:31.754Z,23.40
2022-12-28T23:36:04.369Z,23.60
2022-12-28T23:38:32.913Z,23.80
2022-12-28T23:56:24.711Z,22.40
2022-12-28T23:58:53.368Z,23.40
